Kezdőlap
METAR-TAF:

METAR-TAF

Repülőterek :

Burgasz, Bulgária

földrajzi szélesség: 42-29N, földrajzi hosszúság: 027-29E, magasság: 16 m

Jelenlegi meteorológiai megfigyelések

A jelentés 29 perccel ezelõtt készült, 13:30 UTC
Kelet-északkeleti szél 15 kt, északkeleti és kelet-délkeleti között változik
Hőmérséklet 32°C
Páratartalom 36%
Légköri nyomás 1011 hPa
Látótávolság 10 km, vagy több
felhőtlen 1500 m magasságban, és nincs gomolyfelhõ

METAR: LBBG 161330Z 07015KT 050V110 CAVOK 32/15 Q1011 NOSIG

Idő: 16:59 (13:59 UTC)

Előrejelzés

A jelentés 2 órával és 59 perccel ezelõtt készült, 11:00 UTC
Az előrejelzés 16-én 12 óra UTC és 17-én 12 óra UTC között érvényes
Kelet-délkeleti szél 16 kt
Látótávolság 10 km, vagy több
felhőtlen 1500 m magasságban, és nincs gomolyfelhõ
16-én 12 óra UTC és 16-én 13 óra UTC között fokozatosan kialakuló
Különbözõ irányokból fújó szél 4 kt

TAF: LBBG 161100Z 1612/1712 11016KT CAVOK BECMG 1612/1613 VRB04KT

Meteorológiai megfigyelések és előrejelzések több, mint 4000 repülőtéren (METAR és TAF jelentéseket).

A térképen piros és sárga pontok jelzik az elérhető meteorológiai állomásokat.

Mozgassa az egeret a pont fölött, hogy megjelenjen az állomás neve.

Azután kattintson az időjárási megfigyelések és előrejelzések megtekintéséhez.

A térkép megváltoztatása: kattintson a fekete keresztel jelölt zöld gombra ráközelítéshez, a vonallal jelölt zöld gombra távolításhoz, vagy a zöld nyilakra a szomszédos térképek eléréséhez.


METAR-TAF: